Albany, New York
Traffic Map
Current Weather Conditions
Albany, New York
Few Clouds
Few Clouds
14°
Feels Like: 14°
Wind Chill: 14° Ceiling: Unl
Heat Index: 14° Visibility: 10mi
Dew Point: 12° Wind: 0mph
Humidity: 84% Direction: ° ()
Pressure: 29.93in Gusts: 0mph
Raw Report DataKALB 250951Z 00000KT 10SM FEW020 FEW110 FEW260 14/12 A2993 RMK AO2 SLP134 T01440117
Traffic Incident Summary
Active as of:
Severity:
Category:
InformationThere was an issue retrieving the traffic information for this location. Please try a different location or try again shortly.
Advertisements
Track Severe Weather on mobile